Terminal Aerodrome Forecast
Issued by NWS

Home | Current Version | Previous Version | Text Only | Print | Product List | Glossary On
Versions: 1 2 3 4 5 6 7 8 9 10 11 12 13 14 15 16 17 18 19 20 21 22 23
000
FTUS45 KFGZ 202300
TAFSEZ
TAF
KSEZ 202324Z 2100/2124 VRB06KT P6SM VCSH SCT050 SCT100
     FM210300 VRB06KT P6SM FEW080
     FM211800 19005KT P6SM SCT060 BKN110
      TEMPO 2120/2124 VRB15G25KT 5SM -TSRA BKN060CB=

USA.gov is the U.S. government's official web portal to all federal, state and local government web resources and services.